Time;durP1;ratioP1;P1;durP2;ratioP2;P2;SDS_P1;SDS_P2;PMS_P1;PMS_P2;Temp;Humidity;BMP_temperature;BMP_pressure;BME280_temperature;BME280_humidity;BME280_pressure;Samples;Min_cycle;Max_cycle;Signal;HPM_P1;HPM_P2
2022/07/04 00:02:08;;;;;;;0.50;0.50;;;20.30;99.90;;;;;;4975470;28;20460;-75
2022/07/04 00:04:35;;;;;;;1.00;0.80;;;20.30;99.90;;;;;;4975063;28;20979;-75
2022/07/04 00:07:02;;;;;;;0.60;0.60;;;20.20;99.90;;;;;;4975300;28;20473;-75
2022/07/04 00:09:29;;;;;;;0.87;0.87;;;20.20;99.90;;;;;;4975265;28;20493;-75
2022/07/04 00:11:55;;;;;;;0.63;0.63;;;20.30;99.90;;;;;;4974798;28;20853;-75
2022/07/04 00:14:22;;;;;;;0.80;0.70;;;20.20;99.90;;;;;;4974905;28;20949;-75
2022/07/04 00:16:49;;;;;;;0.40;0.40;;;20.20;99.90;;;;;;4975108;28;20475;-75
2022/07/04 00:19:17;;;;;;;0.70;0.50;;;20.30;99.90;;;;;;4975173;28;20437;-75
2022/07/04 00:21:44;;;;;;;0.97;0.60;;;20.30;99.90;;;;;;4975096;28;20453;-75
2022/07/04 00:24:11;;;;;;;0.83;0.80;;;20.20;99.90;;;;;;4975057;28;20464;-75
2022/07/04 00:26:37;;;;;;;0.70;0.70;;;20.20;99.90;;;;;;4974942;28;20473;-75
2022/07/04 00:29:04;;;;;;;0.60;0.60;;;20.30;99.90;;;;;;4974529;28;20480;-75
2022/07/04 00:31:31;;;;;;;0.80;0.80;;;20.30;99.90;;;;;;4974313;28;20449;-75
2022/07/04 00:33:57;;;;;;;0.40;0.40;;;20.30;99.90;;;;;;4974939;28;20465;-75
2022/07/04 00:36:26;;;;;;;0.50;0.50;;;20.30;99.90;;;;;;4974537;28;20469;-75
2022/07/04 00:38:52;;;;;;;0.60;0.60;;;20.20;99.90;;;;;;4974881;28;20445;-75
2022/07/04 00:41:19;;;;;;;0.67;0.60;;;20.20;99.90;;;;;;4974819;28;20449;-75
2022/07/04 00:44:00;;;;;;;1.80;0.77;;;20.20;99.90;;;;;;4974757;28;20480;-75
2022/07/04 00:46:27;;;;;;;0.60;0.60;;;20.20;99.90;;;;;;4974460;28;21004;-75
2022/07/04 00:48:54;;;;;;;0.80;0.73;;;20.10;99.90;;;;;;4974876;28;20485;-76
2022/07/04 00:51:21;;;;;;;0.47;0.47;;;20.10;99.90;;;;;;4974684;28;20459;-75
2022/07/04 00:53:49;;;;;;;0.80;0.67;;;20.10;99.90;;;;;;4974672;28;20461;-75
2022/07/04 00:56:16;;;;;;;0.90;0.70;;;20.10;99.90;;;;;;4974570;28;20473;-75
2022/07/04 00:58:43;;;;;;;0.50;0.50;;;20.10;99.90;;;;;;4974648;28;20460;-75
2022/07/04 01:01:10;;;;;;;0.60;0.60;;;20.10;99.90;;;;;;4974611;28;20464;-75
2022/07/04 01:03:37;;;;;;;1.07;0.80;;;20.10;99.90;;;;;;4974582;28;20452;-75
2022/07/04 01:06:04;;;;;;;0.70;0.70;;;20.00;99.90;;;;;;4974496;28;20473;-75
2022/07/04 01:08:31;;;;;;;0.93;0.83;;;20.00;99.90;;;;;;4974187;28;20492;-75
2022/07/04 01:10:59;;;;;;;0.67;0.67;;;20.00;99.90;;;;;;4974015;28;21004;-75
2022/07/04 01:13:25;;;;;;;0.60;0.60;;;20.00;99.90;;;;;;4974532;28;20441;-75
2022/07/04 01:15:52;;;;;;;0.73;0.73;;;19.90;99.90;;;;;;4974416;28;20473;-75
2022/07/04 01:18:19;;;;;;;0.47;0.47;;;19.90;99.90;;;;;;4974128;28;20458;-75
2022/07/04 01:20:47;;;;;;;0.57;0.57;;;19.90;99.90;;;;;;4974428;28;20457;-75
2022/07/04 01:23:14;;;;;;;0.87;0.80;;;19.80;99.90;;;;;;4974137;28;20442;-75
2022/07/04 01:25:40;;;;;;;0.60;0.60;;;19.80;99.90;;;;;;4974961;28;20449;-75
2022/07/04 01:28:07;;;;;;;0.80;0.80;;;19.80;99.90;;;;;;4974314;28;20475;-75
2022/07/04 01:30:35;;;;;;;0.73;0.53;;;19.80;99.90;;;;;;4974350;28;20453;-75
2022/07/04 01:33:01;;;;;;;0.93;0.77;;;19.70;99.90;;;;;;4973996;28;20449;-75
2022/07/04 01:35:28;;;;;;;0.60;0.60;;;19.70;99.90;;;;;;4974264;28;20457;-75
2022/07/04 01:37:57;;;;;;;0.70;0.70;;;19.70;99.90;;;;;;4974178;28;20472;-75
2022/07/04 01:40:24;;;;;;;0.73;0.60;;;19.70;99.90;;;;;;4973920;28;20949;-75
2022/07/04 01:42:51;;;;;;;1.00;0.63;;;19.60;99.90;;;;;;4977115;28;20980;-75
2022/07/04 01:45:18;;;;;;;0.70;0.70;;;19.70;99.90;;;;;;4977938;28;20456;-75
2022/07/04 01:47:45;;;;;;;0.50;0.50;;;19.60;99.90;;;;;;4977833;28;20473;-75
2022/07/04 01:50:13;;;;;;;0.80;0.57;;;19.60;99.90;;;;;;4977489;28;21012;-75
2022/07/04 01:52:40;;;;;;;0.67;0.67;;;19.60;99.90;;;;;;4977590;28;20492;-75
2022/07/04 01:55:09;;;;;;;0.70;0.60;;;19.60;99.90;;;;;;4977779;28;20530;-75
2022/07/04 01:57:36;;;;;;;0.50;0.50;;;19.60;99.90;;;;;;4977676;28;20477;-75
2022/07/04 02:02:48;;;;;;;0.50;0.50;;;19.50;99.90;;;;;;4977448;28;20416;-75
2022/07/04 02:05:15;;;;;;;0.93;0.93;;;19.50;99.90;;;;;;4977616;28;20449;-75
2022/07/04 02:07:41;;;;;;;0.50;0.50;;;19.50;99.90;;;;;;4977470;28;20473;-75
2022/07/04 02:10:10;;;;;;;0.60;0.60;;;19.50;99.90;;;;;;4977427;28;20512;-75
2022/07/04 02:15:22;;;;;;;0.83;0.70;;;19.40;99.90;;;;;;4977492;28;20496;-75
2022/07/04 02:17:49;;;;;;;0.90;0.90;;;19.40;99.90;;;;;;4977001;28;21007;-75
2022/07/04 02:20:16;;;;;;;0.80;0.50;;;19.40;99.90;;;;;;4977022;28;20529;-75
2022/07/04 02:22:43;;;;;;;0.73;0.73;;;19.40;99.90;;;;;;4977291;28;20449;-75
2022/07/04 02:25:12;;;;;;;0.93;0.60;;;19.40;99.90;;;;;;4977229;28;20461;-75
2022/07/04 02:27:39;;;;;;;0.90;0.53;;;19.30;99.90;;;;;;4976809;28;20481;-75
2022/07/04 02:30:07;;;;;;;0.60;0.60;;;19.30;99.90;;;;;;4977097;28;20481;-75
2022/07/04 02:32:34;;;;;;;1.27;0.70;;;19.20;99.90;;;;;;4977116;28;20449;-75
2022/07/04 02:35:01;;;;;;;0.87;0.67;;;19.20;99.90;;;;;;4977087;28;20452;-75
2022/07/04 02:37:27;;;;;;;1.33;0.80;;;19.20;99.90;;;;;;4976961;28;20476;-75
2022/07/04 02:39:54;;;;;;;0.70;0.70;;;19.10;99.90;;;;;;4976694;28;20929;-75
2022/07/04 02:42:22;;;;;;;0.57;0.57;;;19.10;99.90;;;;;;4976915;28;20453;-75
2022/07/04 02:44:49;;;;;;;0.73;0.50;;;19.10;99.90;;;;;;4976876;28;20456;-75
2022/07/04 02:47:16;;;;;;;0.60;0.60;;;19.10;99.90;;;;;;4976819;28;20469;-75
2022/07/04 02:49:43;;;;;;;0.60;0.60;;;19.00;99.90;;;;;;4976412;28;21007;-75
2022/07/04 02:52:10;;;;;;;0.50;0.50;;;19.00;99.90;;;;;;4976379;28;20979;-75
2022/07/04 02:54:36;;;;;;;1.03;0.80;;;18.90;99.90;;;;;;4975949;28;20446;-75
2022/07/04 02:57:04;;;;;;;0.80;0.80;;;19.00;99.90;;;;;;4976371;28;20813;-75
2022/07/04 02:59:32;;;;;;;1.03;0.70;;;18.90;99.90;;;;;;4976338;28;20457;-75
2022/07/04 03:01:58;;;;;;;0.50;0.50;;;18.90;99.90;;;;;;4976595;28;20449;-75
2022/07/04 03:04:25;;;;;;;0.63;0.63;;;18.90;99.90;;;;;;4976511;28;20481;-75
2022/07/04 03:06:52;;;;;;;0.90;0.73;;;18.80;99.90;;;;;;4976454;28;20469;-75
2022/07/04 03:09:19;;;;;;;0.50;0.50;;;18.80;99.90;;;;;;4976367;28;20485;-75
2022/07/04 03:11:45;;;;;;;0.60;0.50;;;18.70;99.90;;;;;;4976072;28;20488;-75
2022/07/04 03:14:12;;;;;;;0.60;0.60;;;18.70;99.90;;;;;;4976062;28;20456;-75
2022/07/04 03:16:40;;;;;;;0.70;0.70;;;18.60;99.90;;;;;;4975957;28;20477;-75
2022/07/04 03:19:08;;;;;;;0.60;0.60;;;18.60;99.90;;;;;;4975972;28;20449;-75
2022/07/04 03:21:34;;;;;;;1.40;0.67;;;18.60;99.90;;;;;;4976226;28;20480;-75
2022/07/04 03:24:01;;;;;;;0.50;0.50;;;18.60;99.90;;;;;;4976199;28;20445;-75
2022/07/04 03:26:30;;;;;;;0.50;0.50;;;18.60;99.90;;;;;;4976339;28;20477;-75
2022/07/04 03:28:58;;;;;;;1.47;0.70;;;18.50;99.90;;;;;;4976031;28;20485;-75
2022/07/04 03:31:25;;;;;;;1.53;0.70;;;18.50;99.90;;;;;;4976042;28;20457;-75
2022/07/04 03:33:54;;;;;;;1.03;0.80;;;18.50;99.90;;;;;;4975976;28;20453;-75
2022/07/04 03:36:21;;;;;;;0.63;0.60;;;18.40;99.90;;;;;;4975879;28;20470;-75
2022/07/04 03:38:48;;;;;;;1.23;0.70;;;18.40;99.90;;;;;;4975582;28;20632;-75
2022/07/04 03:41:15;;;;;;;1.03;0.60;;;18.40;99.90;;;;;;4975887;28;20449;-75
2022/07/04 03:43:42;;;;;;;1.23;0.70;;;18.40;99.90;;;;;;4975811;28;20450;-75
2022/07/04 03:46:09;;;;;;;0.60;0.60;;;18.40;99.90;;;;;;4975687;28;20489;-75
2022/07/04 03:48:35;;;;;;;0.60;0.60;;;18.30;99.90;;;;;;4975839;28;20457;-75
2022/07/04 03:51:04;;;;;;;2.90;0.70;;;18.30;99.90;;;;;;4975355;28;20495;-75
2022/07/04 03:53:30;;;;;;;0.60;0.60;;;18.30;99.90;;;;;;4975306;28;20898;-75
2022/07/04 03:55:57;;;;;;;0.67;0.63;;;18.30;99.90;;;;;;4975505;28;20481;-75
2022/07/04 03:58:24;;;;;;;1.00;0.90;;;18.30;99.90;;;;;;4975340;28;20821;-75
2022/07/04 04:00:50;;;;;;;0.80;0.80;;;18.30;99.90;;;;;;4975164;28;20868;-75
2022/07/04 04:06:01;;;;;;;0.90;0.90;;;18.30;99.90;;;;;;4975319;28;20523;-75
2022/07/04 04:08:29;;;;;;;0.77;0.77;;;18.30;99.90;;;;;;4975364;28;20449;-75
2022/07/04 04:10:56;;;;;;;0.50;0.40;;;18.30;99.90;;;;;;4975052;28;20864;-75
2022/07/04 04:13:23;;;;;;;5.37;0.80;;;18.30;99.90;;;;;;4975293;28;20449;-75
2022/07/04 04:15:49;;;;;;;0.50;0.50;;;18.30;99.90;;;;;;4975150;28;20827;-75
2022/07/04 04:18:16;;;;;;;3.70;0.60;;;18.30;99.90;;;;;;4975179;28;20454;-75
2022/07/04 04:20:43;;;;;;;0.50;0.50;;;18.30;99.90;;;;;;4975137;28;20449;-75
2022/07/04 04:23:10;;;;;;;0.50;0.50;;;18.30;99.90;;;;;;4974797;28;20462;-75
2022/07/04 04:25:38;;;;;;;0.50;0.50;;;18.30;99.90;;;;;;4974987;28;20453;-75
2022/07/04 04:28:05;;;;;;;0.70;0.70;;;18.30;99.90;;;;;;4975027;28;20454;-75
2022/07/04 04:30:31;;;;;;;0.50;0.50;;;18.30;99.90;;;;;;4974918;28;20481;-75
2022/07/04 04:32:58;;;;;;;0.50;0.50;;;18.30;99.90;;;;;;4974955;28;20453;-75
2022/07/04 04:35:25;;;;;;;0.50;0.50;;;18.30;99.90;;;;;;4974907;28;20449;-75
2022/07/04 04:37:52;;;;;;;0.50;0.50;;;18.30;99.90;;;;;;4974504;28;20856;-75
2022/07/04 04:40:19;;;;;;;2.60;0.50;;;18.30;99.90;;;;;;4974595;28;20448;-75
2022/07/04 04:42:47;;;;;;;0.40;0.40;;;18.40;99.90;;;;;;4974835;28;20468;-75
2022/07/04 04:45:13;;;;;;;0.47;0.47;;;18.40;99.90;;;;;;4974823;28;20444;-75
2022/07/04 04:47:42;;;;;;;1.40;0.97;;;18.40;99.90;;;;;;4974729;28;20472;-75
2022/07/04 04:50:11;;;;;;;0.53;0.53;;;18.50;99.90;;;;;;4974348;28;21083;-75
2022/07/04 04:52:38;;;;;;;0.80;0.70;;;18.50;99.90;;;;;;4974439;28;20461;-75
2022/07/04 04:55:05;;;;;;;0.50;0.50;;;18.50;99.90;;;;;;4974664;28;20446;-75
2022/07/04 04:57:32;;;;;;;0.50;0.50;;;18.60;99.90;;;;;;4974563;28;20477;-75
2022/07/04 05:00:00;;;;;;;0.60;0.50;;;18.60;99.90;;;;;;4974335;28;20949;-75
2022/07/04 05:02:27;;;;;;;0.73;0.73;;;18.60;99.90;;;;;;4974582;28;20450;-75
2022/07/04 05:04:54;;;;;;;0.60;0.50;;;18.70;99.90;;;;;;4974548;28;20449;-75
2022/07/04 05:07:21;;;;;;;0.67;0.60;;;18.70;99.90;;;;;;4974464;28;20899;-75
2022/07/04 05:09:47;;;;;;;0.50;0.50;;;18.60;99.90;;;;;;4974448;28;20488;-75
2022/07/04 05:12:15;;;;;;;0.50;0.50;;;18.60;99.90;;;;;;4974086;28;20488;-75
2022/07/04 05:14:42;;;;;;;0.67;0.40;;;18.60;99.90;;;;;;4974974;28;20445;-75
2022/07/04 05:17:10;;;;;;;0.50;0.50;;;18.60;99.90;;;;;;4976624;28;20469;-75
2022/07/04 05:19:37;;;;;;;0.50;0.50;;;18.50;99.90;;;;;;4978410;28;20449;-75
2022/07/04 05:22:04;;;;;;;0.80;0.60;;;18.50;99.90;;;;;;4978039;28;20961;-75
2022/07/04 05:24:30;;;;;;;1.67;0.67;;;18.50;99.90;;;;;;4978380;28;20464;-75
2022/07/04 05:26:57;;;;;;;1.03;0.70;;;18.50;99.90;;;;;;4977979;28;20834;-75
2022/07/04 05:29:24;;;;;;;0.70;0.70;;;18.60;99.90;;;;;;4977938;28;20808;-75
2022/07/04 05:31:50;;;;;;;0.57;0.57;;;18.60;99.90;;;;;;4978153;28;20453;-75
2022/07/04 05:34:19;;;;;;;1.03;0.80;;;18.70;99.90;;;;;;4977893;28;20464;-75
2022/07/04 05:36:45;;;;;;;0.60;0.60;;;18.70;99.90;;;;;;4978128;28;20532;-75
2022/07/04 05:39:12;;;;;;;0.67;0.67;;;18.80;99.90;;;;;;4978124;28;20464;-75
2022/07/04 05:41:39;;;;;;;0.80;0.67;;;18.90;99.90;;;;;;4978071;28;20462;-75
2022/07/04 05:44:05;;;;;;;1.73;0.50;;;19.00;99.90;;;;;;4978009;28;20457;-75
2022/07/04 05:46:32;;;;;;;1.93;1.17;;;19.10;99.90;;;;;;4977933;28;20480;-75
2022/07/04 05:48:59;;;;;;;0.80;0.60;;;19.20;99.90;;;;;;4977923;28;20460;-75
2022/07/04 05:51:27;;;;;;;0.83;0.50;;;19.30;99.90;;;;;;4977851;28;20561;-75
2022/07/04 05:53:55;;;;;;;1.47;1.37;;;19.40;99.90;;;;;;4977850;28;20449;-75
2022/07/04 05:56:23;;;;;;;1.17;0.80;;;19.50;99.90;;;;;;4977728;28;20564;-75
2022/07/04 05:58:49;;;;;;;0.93;0.70;;;19.70;99.90;;;;;;4977491;28;20544;-75
2022/07/04 06:01:16;;;;;;;0.50;0.50;;;19.80;99.90;;;;;;4977727;28;20460;-75
2022/07/04 06:03:43;;;;;;;0.60;0.60;;;19.90;99.90;;;;;;4977620;28;20449;-75
2022/07/04 06:06:09;;;;;;;0.53;0.53;;;19.90;99.90;;;;;;4977535;28;20472;-75
2022/07/04 06:08:38;;;;;;;0.40;0.40;;;20.00;99.90;;;;;;4977591;28;20453;-75
2022/07/04 06:11:04;;;;;;;0.50;0.43;;;20.00;99.90;;;;;;4977199;28;20492;-75
2022/07/04 06:13:31;;;;;;;1.30;0.70;;;20.00;99.90;;;;;;4977249;28;20444;-75
2022/07/04 06:15:58;;;;;;;0.67;0.67;;;20.00;99.90;;;;;;4977374;28;20464;-75
2022/07/04 06:18:24;;;;;;;1.17;0.57;;;20.00;99.90;;;;;;4977401;28;20452;-75
2022/07/04 06:20:51;;;;;;;0.57;0.57;;;19.90;99.90;;;;;;4977347;28;20449;-75
2022/07/04 06:23:18;;;;;;;1.73;0.70;;;20.00;99.90;;;;;;4977137;28;20437;-75
2022/07/04 06:25:46;;;;;;;0.63;0.60;;;20.00;99.90;;;;;;4977253;28;20459;-75
2022/07/04 06:28:13;;;;;;;0.60;0.60;;;20.20;99.90;;;;;;4975867;28;20448;-75
2022/07/04 06:30:40;;;;;;;0.73;0.60;;;20.30;99.90;;;;;;4976914;28;20484;-75
2022/07/04 06:33:07;;;;;;;0.70;0.60;;;20.40;99.90;;;;;;4977220;28;20451;-75
2022/07/04 06:35:45;;;;;;;0.60;0.60;;;20.70;99.90;;;;;;4977033;28;20453;-75
2022/07/04 06:38:12;;;;;;;0.60;0.60;;;20.90;99.90;;;;;;4976853;28;20487;-75
2022/07/04 06:40:40;;;;;;;0.90;0.60;;;21.10;99.90;;;;;;4977753;28;20440;-75
2022/07/04 06:43:09;;;;;;;1.07;0.60;;;21.30;99.90;;;;;;4976993;28;20455;-76
2022/07/04 06:45:36;;;;;;;0.73;0.73;;;21.30;99.90;;;;;;4976570;28;20448;-75
2022/07/04 06:48:04;;;;;;;0.70;0.60;;;21.30;99.90;;;;;;4976971;28;20464;-75
2022/07/04 06:50:32;;;;;;;2.40;0.87;;;21.40;99.90;;;;;;4976754;28;20495;-75
2022/07/04 06:53:00;;;;;;;0.70;0.70;;;21.40;99.90;;;;;;4976495;28;20939;-75
2022/07/04 06:55:27;;;;;;;2.50;0.90;;;21.40;99.90;;;;;;4977561;28;20449;-75
2022/07/04 06:57:53;;;;;;;1.00;0.70;;;21.40;99.90;;;;;;4976403;28;20476;-75
2022/07/04 07:00:21;;;;;;;0.60;0.60;;;21.40;99.90;;;;;;4976693;28;20448;-75
2022/07/04 07:02:48;;;;;;;1.00;1.00;;;21.40;99.90;;;;;;4976388;28;20433;-75
2022/07/04 07:05:15;;;;;;;0.97;0.50;;;21.40;99.90;;;;;;4976594;28;20449;-75
2022/07/04 07:07:42;;;;;;;0.70;0.70;;;21.40;99.90;;;;;;4976498;28;20480;-75
2022/07/04 07:10:09;;;;;;;0.80;0.80;;;21.40;99.90;;;;;;4976198;28;20477;-75
2022/07/04 07:12:36;;;;;;;0.63;0.63;;;21.40;99.90;;;;;;4976024;28;20480;-75
2022/07/04 07:15:03;;;;;;;0.70;0.70;;;21.50;99.90;;;;;;4976429;28;20455;-75
2022/07/04 07:17:32;;;;;;;0.53;0.53;;;21.50;99.90;;;;;;4976311;28;20465;-76
2022/07/04 07:19:58;;;;;;;0.60;0.60;;;21.60;99.90;;;;;;4976042;28;20456;-76
2022/07/04 07:22:25;;;;;;;0.60;0.60;;;21.70;99.90;;;;;;4976267;28;20445;-75
2022/07/04 07:24:52;;;;;;;1.00;0.70;;;21.60;99.90;;;;;;4976246;28;20456;-75
2022/07/04 07:27:19;;;;;;;0.67;0.60;;;21.60;99.90;;;;;;4975788;28;20872;-75
2022/07/04 07:29:45;;;;;;;0.70;0.70;;;21.60;99.90;;;;;;4975884;28;20460;-75
2022/07/04 07:32:13;;;;;;;1.17;0.80;;;21.60;99.90;;;;;;4975976;28;20495;-75
2022/07/04 07:34:41;;;;;;;0.50;0.50;;;21.50;99.90;;;;;;4975716;28;20976;-75
2022/07/04 07:37:08;;;;;;;0.57;0.57;;;21.50;99.90;;;;;;4975990;28;20816;-75
2022/07/04 07:39:35;;;;;;;0.80;0.63;;;21.50;99.90;;;;;;4975533;28;20535;-75
2022/07/04 07:42:01;;;;;;;0.60;0.60;;;21.50;99.90;;;;;;4975611;28;20929;-75
2022/07/04 07:44:28;;;;;;;0.63;0.63;;;21.50;99.90;;;;;;4975816;28;20453;-75
2022/07/04 07:46:56;;;;;;;0.70;0.70;;;21.50;99.90;;;;;;4976305;28;20476;-75
2022/07/04 07:49:22;;;;;;;0.80;0.80;;;21.50;99.90;;;;;;4975739;28;20468;-75
2022/07/04 07:51:50;;;;;;;1.60;1.03;;;21.60;99.90;;;;;;4975334;28;20860;-75
2022/07/04 07:54:17;;;;;;;2.00;0.70;;;21.70;99.90;;;;;;4975436;28;20920;-76
2022/07/04 07:56:44;;;;;;;0.97;0.80;;;21.80;99.90;;;;;;4975551;28;20552;-75
2022/07/04 07:59:11;;;;;;;0.53;0.53;;;21.90;99.90;;;;;;4975586;28;20513;-75
2022/07/04 08:01:37;;;;;;;0.80;0.80;;;22.00;99.90;;;;;;4975570;28;20460;-75
2022/07/04 08:06:50;;;;;;;2.83;0.80;;;21.90;99.90;;;;;;4975222;28;20448;-75
2022/07/04 08:09:17;;;;;;;1.07;0.90;;;21.90;99.90;;;;;;4975246;28;20476;-76
2022/07/04 08:11:44;;;;;;;0.60;0.50;;;21.80;99.90;;;;;;4974809;28;20488;-75
2022/07/04 08:14:11;;;;;;;0.60;0.60;;;21.80;99.90;;;;;;4975031;28;20987;-75
2022/07/04 08:16:37;;;;;;;0.60;0.60;;;21.70;99.90;;;;;;4975234;28;20483;-75
2022/07/04 08:19:04;;;;;;;1.03;0.80;;;21.70;99.90;;;;;;4975255;28;20472;-75
2022/07/04 08:21:31;;;;;;;1.00;0.90;;;21.80;99.90;;;;;;4974877;28;20948;-75
2022/07/04 08:23:59;;;;;;;0.77;0.77;;;21.80;99.90;;;;;;4975291;28;20461;-76
2022/07/04 08:26:26;;;;;;;0.60;0.60;;;21.70;99.90;;;;;;4975235;28;20481;-75
2022/07/04 08:28:57;;;;;;;1.63;0.80;;;21.70;99.90;;;;;;4975068;28;20453;-76
2022/07/04 08:31:24;;;;;;;0.60;0.60;;;21.70;99.90;;;;;;4974736;28;20479;-76
2022/07/04 08:33:50;;;;;;;2.43;0.93;;;21.70;99.90;;;;;;4974975;28;20460;-75
2022/07/04 08:36:17;;;;;;;0.70;0.60;;;21.70;99.90;;;;;;4974900;28;20579;-75
2022/07/04 08:38:44;;;;;;;1.40;0.70;;;21.80;99.90;;;;;;4975379;28;20456;-76
2022/07/04 08:41:16;;;;;;;6.63;0.97;;;21.80;99.90;;;;;;4974898;28;20457;-75
2022/07/04 08:43:43;;;;;;;1.00;1.00;;;22.10;99.90;;;;;;4974617;28;20437;-76
2022/07/04 08:46:11;;;;;;;0.70;0.70;;;22.20;99.90;;;;;;4974771;28;20487;-75
2022/07/04 08:48:41;;;;;;;0.93;0.93;;;22.20;99.90;;;;;;4974486;28;20949;-75
2022/07/04 08:51:16;;;;;;;0.70;0.70;;;22.20;99.90;;;;;;4974007;28;20469;-75
2022/07/04 08:53:51;;;;;;;0.67;0.67;;;22.30;99.90;;;;;;4974500;28;20602;-76
2022/07/04 08:59:05;;;;;;;0.73;0.73;;;22.50;99.90;;;;;;4974742;28;20529;-75
2022/07/04 09:01:33;;;;;;;0.53;0.53;;;22.50;99.90;;;;;;4974660;28;20206;-76
2022/07/04 09:04:02;;;;;;;0.60;0.60;;;22.50;99.90;;;;;;4974273;28;20457;-75
2022/07/04 09:06:30;;;;;;;1.10;1.00;;;22.60;99.90;;;;;;4974212;28;20222;-75
2022/07/04 09:08:58;;;;;;;0.60;0.60;;;22.80;99.90;;;;;;4974587;28;20208;-76
2022/07/04 09:11:26;;;;;;;1.10;1.00;;;22.90;99.90;;;;;;4974170;28;20241;-76
2022/07/04 09:13:52;;;;;;;1.17;0.70;;;23.00;99.90;;;;;;4974523;28;20213;-75
2022/07/04 09:16:19;;;;;;;0.80;0.80;;;23.20;99.90;;;;;;4974500;28;20221;-76
2022/07/04 09:18:46;;;;;;;0.68;0.68;;;23.30;99.90;;;;;;4974567;28;20193;-76
2022/07/04 09:21:13;;;;;;;0.60;0.60;;;23.50;99.90;;;;;;4974200;28;20674;-75
2022/07/04 09:23:42;;;;;;;0.80;0.80;;;23.60;99.90;;;;;;4974458;28;20205;-76
2022/07/04 09:26:15;;;;;;;1.45;1.08;;;23.80;99.90;;;;;;4974357;28;20708;-76
2022/07/04 09:28:45;;;;;;;0.80;0.80;;;24.00;99.90;;;;;;4974418;28;20205;-76
2022/07/04 09:31:20;;;;;;;0.80;0.80;;;24.10;99.90;;;;;;4974326;28;20210;-76
2022/07/04 09:33:49;;;;;;;1.25;0.93;;;24.00;99.90;;;;;;4974937;28;20227;-76
2022/07/04 09:36:19;;;;;;;1.23;1.02;;;24.30;99.90;;;;;;4974024;28;20713;-76
2022/07/04 09:38:46;;;;;;;0.90;0.90;;;24.40;99.90;;;;;;4974307;28;20205;-76
2022/07/04 09:41:34;;;;;;;0.80;0.80;;;24.70;99.90;;;;;;4974268;28;20202;-76
2022/07/04 09:44:04;;;;;;;1.70;0.70;;;24.70;99.90;;;;;;4974948;28;20197;-76
2022/07/04 09:46:31;;;;;;;1.63;0.90;;;24.90;99.90;;;;;;4974445;28;20227;-76
2022/07/04 09:48:58;;;;;;;0.80;0.77;;;25.00;99.90;;;;;;4974407;28;20205;-76
2022/07/04 09:51:42;;;;;;;1.10;1.00;;;25.20;99.90;;;;;;4973867;28;20230;-76
2022/07/04 09:54:18;;;;;;;1.10;0.90;;;25.20;99.90;;;;;;4974198;28;20240;-76
2022/07/04 09:56:46;;;;;;;2.08;0.85;;;25.20;99.90;;;;;;4974080;28;20229;-75
2022/07/04 09:59:15;;;;;;;1.05;0.60;;;25.20;99.90;;;;;;4974121;28;20213;-76
2022/07/04 10:01:42;;;;;;;1.02;1.00;;;25.20;99.90;;;;;;4974773;28;20213;-75
2022/07/04 10:04:09;;;;;;;1.70;1.20;;;25.20;99.90;;;;;;4977585;28;20220;-75
2022/07/04 10:06:39;;;;;;;0.70;0.70;;;25.20;99.90;;;;;;4977300;28;20229;-75
2022/07/04 10:09:10;;;;;;;0.90;0.90;;;25.00;99.90;;;;;;4977464;28;20242;-76
2022/07/04 10:11:38;;;;;;;1.00;0.90;;;24.80;99.90;;;;;;4977070;28;20236;-76
2022/07/04 10:14:07;;;;;;;0.70;0.70;;;24.80;99.90;;;;;;4977227;28;20681;-75
2022/07/04 10:16:35;;;;;;;2.63;1.05;;;24.90;99.90;;;;;;4977138;28;20648;-75
2022/07/04 10:19:03;;;;;;;1.17;0.95;;;24.90;99.90;;;;;;4977475;28;20224;-76
2022/07/04 10:21:31;;;;;;;1.00;0.85;;;24.90;99.90;;;;;;4977453;28;20212;-76
2022/07/04 10:23:59;;;;;;;0.90;0.90;;;25.10;99.90;;;;;;4977380;28;20637;-75
2022/07/04 10:26:28;;;;;;;1.00;0.90;;;25.10;99.90;;;;;;4976932;28;20712;-76
2022/07/04 10:28:55;;;;;;;0.60;0.60;;;25.10;99.90;;;;;;4976962;28;20224;-75
2022/07/04 10:31:24;;;;;;;0.93;0.80;;;25.00;99.90;;;;;;4977139;28;20230;-76
2022/07/04 10:33:54;;;;;;;1.65;0.90;;;24.90;99.90;;;;;;4977223;28;20260;-77
2022/07/04 10:36:23;;;;;;;0.90;0.90;;;25.10;99.90;;;;;;4976902;28;20236;-75
2022/07/04 10:38:53;;;;;;;2.97;1.10;;;25.30;99.90;;;;;;4976780;28;20201;-76
2022/07/04 10:41:21;;;;;;;1.17;1.10;;;25.50;99.90;;;;;;4976727;28;20205;-76
2022/07/04 10:44:01;;;;;;;0.80;0.80;;;25.60;99.90;;;;;;4976696;28;20210;-76
2022/07/04 10:46:33;;;;;;;1.20;1.10;;;25.60;99.90;;;;;;4976966;28;20225;-76
2022/07/04 10:49:04;;;;;;;1.63;1.20;;;25.80;99.90;;;;;;4976921;28;20284;-75
2022/07/04 10:51:45;;;;;;;0.90;0.90;;;25.90;99.90;;;;;;4976851;28;20214;-76
2022/07/04 10:54:15;;;;;;;0.70;0.70;;;25.80;99.90;;;;;;4976811;28;20189;-76
2022/07/04 10:56:48;;;;;;;1.23;1.00;;;25.50;99.90;;;;;;4976705;28;20225;-76
2022/07/04 10:59:18;;;;;;;1.30;1.30;;;25.20;99.90;;;;;;4977182;28;20208;-76
2022/07/04 11:01:53;;;;;;;0.80;0.80;;;24.90;99.90;;;;;;4976727;28;20214;-76
2022/07/04 11:04:51;;;;;;;1.27;1.17;;;24.80;99.90;;;;;;4976621;28;20201;-76
2022/07/04 11:07:20;;;;;;;1.00;0.90;;;24.90;99.90;;;;;;4960081;28;20268;-76
2022/07/04 11:09:48;;;;;;;0.90;0.90;;;25.10;99.90;;;;;;4976527;28;20202;-75
2022/07/04 11:12:15;;;;;;;1.88;0.98;;;25.40;99.90;;;;;;4975888;28;20280;-76
2022/07/04 11:14:43;;;;;;;0.98;0.88;;;25.70;99.90;;;;;;4975654;28;20623;-76
2022/07/04 11:17:12;;;;;;;1.00;0.80;;;26.00;99.90;;;;;;4976308;28;20283;-76
2022/07/04 11:19:39;;;;;;;0.70;0.70;;;26.20;99.90;;;;;;4976037;28;20210;-75
2022/07/04 11:22:10;;;;;;;0.90;0.90;;;26.40;99.90;;;;;;4976302;28;20202;-75
2022/07/04 11:24:38;;;;;;;1.83;0.80;;;26.50;99.90;;;;;;4976283;28;20308;-76
2022/07/04 11:27:07;;;;;;;0.93;0.82;;;26.60;99.90;;;;;;4975850;28;20736;-76
2022/07/04 11:29:35;;;;;;;1.65;0.93;;;26.70;99.80;;;;;;4975876;28;20233;-75
2022/07/04 11:32:05;;;;;;;0.80;0.80;;;26.60;99.90;;;;;;4976126;28;20213;-75
2022/07/04 11:34:32;;;;;;;0.93;0.90;;;26.30;99.90;;;;;;4976108;28;20221;-75
2022/07/04 11:37:01;;;;;;;0.93;0.93;;;26.00;99.90;;;;;;4975951;28;20262;-75
2022/07/04 11:39:29;;;;;;;0.73;0.73;;;26.00;99.90;;;;;;4975691;28;20205;-75
2022/07/04 11:47:33;;;;;;;0.90;0.90;;;25.60;99.90;;;;;;4975592;28;20228;-75
2022/07/04 11:50:00;;;;;;;0.80;0.80;;;25.40;99.90;;;;;;4975419;28;20561;-75
2022/07/04 11:52:29;;;;;;;0.93;0.93;;;25.40;99.90;;;;;;4975644;28;20229;-76
2022/07/04 11:54:57;;;;;;;1.38;0.88;;;25.40;99.90;;;;;;4975439;28;20208;-76
2022/07/04 11:57:26;;;;;;;0.70;0.70;;;25.40;99.90;;;;;;4975584;28;20229;-75
2022/07/04 11:59:56;;;;;;;0.98;0.98;;;25.60;99.90;;;;;;4975289;28;20205;-75
2022/07/04 12:02:23;;;;;;;1.13;1.08;;;25.80;99.90;;;;;;4975544;28;20205;-75
2022/07/04 12:04:50;;;;;;;0.85;0.85;;;25.90;99.90;;;;;;4975487;28;20579;-76
2022/07/04 12:07:18;;;;;;;1.00;1.00;;;25.80;99.90;;;;;;4975144;28;20239;-76
2022/07/04 12:09:47;;;;;;;1.48;1.30;;;25.70;99.90;;;;;;4975207;28;20201;-76
2022/07/04 12:12:17;;;;;;;1.98;0.80;;;25.50;99.90;;;;;;4974840;28;20599;-75
2022/07/04 12:14:59;;;;;;;1.20;1.10;;;25.60;99.90;;;;;;4975061;28;20691;-76
2022/07/04 12:17:31;;;;;;;0.75;0.75;;;25.60;99.90;;;;;;4975298;28;20292;-75
2022/07/04 12:19:59;;;;;;;0.90;0.80;;;25.50;99.90;;;;;;4975299;28;20201;-75
2022/07/04 12:22:29;;;;;;;0.82;0.82;;;25.60;99.90;;;;;;4975230;28;20205;-75
2022/07/04 12:24:56;;;;;;;1.20;0.90;;;25.40;99.90;;;;;;4975146;28;20206;-76
2022/07/04 12:27:26;;;;;;;1.00;0.77;;;25.20;99.90;;;;;;4974844;28;20218;-75
2022/07/04 12:29:54;;;;;;;0.88;0.88;;;25.20;99.90;;;;;;4975124;28;20577;-75
2022/07/04 12:32:21;;;;;;;5.47;0.80;;;25.20;99.90;;;;;;4974983;28;20229;-75
2022/07/04 12:34:48;;;;;;;0.93;0.80;;;25.30;99.90;;;;;;4975005;28;20221;-75
2022/07/04 12:37:17;;;;;;;0.98;0.98;;;25.40;99.90;;;;;;4974949;28;20226;-76
2022/07/04 12:39:45;;;;;;;0.68;0.68;;;25.60;99.90;;;;;;4974675;28;20697;-76
2022/07/04 12:42:13;;;;;;;0.63;0.63;;;25.60;99.90;;;;;;4974604;28;20669;-75
2022/07/04 12:44:43;;;;;;;0.80;0.80;;;25.60;99.90;;;;;;4974863;28;20210;-76
2022/07/04 12:47:11;;;;;;;0.68;0.68;;;25.70;99.40;;;;;;4974703;28;20357;-76
2022/07/04 12:49:38;;;;;;;1.17;1.08;;;25.80;99.30;;;;;;4974818;28;20239;-75
2022/07/04 12:52:11;;;;;;;1.23;1.23;;;25.80;98.90;;;;;;4974421;28;20217;-75
2022/07/04 12:54:38;;;;;;;1.00;0.90;;;25.70;99.90;;;;;;4974753;28;20209;-76
2022/07/04 12:57:07;;;;;;;0.80;0.80;;;25.70;99.90;;;;;;4974369;28;20229;-76
2022/07/04 12:59:34;;;;;;;1.98;1.00;;;25.60;99.90;;;;;;4974713;28;20205;-76
2022/07/04 13:02:02;;;;;;;0.70;0.70;;;25.60;99.30;;;;;;4974337;28;20206;-75
2022/07/04 13:04:30;;;;;;;1.08;0.90;;;25.60;99.00;;;;;;4974324;28;20677;-76
2022/07/04 13:06:59;;;;;;;0.93;0.70;;;25.70;98.30;;;;;;4974567;28;20371;-75
2022/07/04 13:09:25;;;;;;;0.57;0.57;;;25.70;98.70;;;;;;4974601;28;20208;-75
2022/07/04 13:14:37;;;;;;;1.02;0.93;;;25.60;99.80;;;;;;4974644;28;20197;-75